createdAt,value
2022-12-08T04:44:20.972Z,34.65
2022-12-08T04:46:48.589Z,37.33
2022-12-08T04:49:15.750Z,45.30
2022-12-08T04:51:43.209Z,43.17
2022-12-08T04:54:10.353Z,44.08
2022-12-08T04:56:38.921Z,42.80
2022-12-08T04:59:07.280Z,35.13
2022-12-08T05:01:34.966Z,28.33
2022-12-08T05:04:02.236Z,30.98
2022-12-08T05:06:29.876Z,31.83
2022-12-08T05:08:57.014Z,30.60
2022-12-08T05:11:24.656Z,24.98
2022-12-08T05:13:51.867Z,20.35
2022-12-08T05:16:19.534Z,21.33
2022-12-08T05:18:46.710Z,20.95
2022-12-08T05:21:14.166Z,16.27
2022-12-08T05:23:42.778Z,13.75
2022-12-08T05:26:10.321Z,14.73
2022-12-08T05:28:42.349Z,13.20
2022-12-08T05:31:12.641Z,12.57
2022-12-08T05:33:40.515Z,15.23
2022-12-08T05:36:09.378Z,18.02
2022-12-08T05:38:36.485Z,27.25
2022-12-08T05:41:04.222Z,35.70
2022-12-08T05:43:31.385Z,37.05
2022-12-08T05:45:59.153Z,41.65
2022-12-08T05:48:26.450Z,46.25
2022-12-08T05:50:54.038Z,49.28
2022-12-08T05:53:21.499Z,44.50
2022-12-08T05:55:49.029Z,44.47
2022-12-08T05:58:18.747Z,46.75
2022-12-08T06:00:47.363Z,44.60
2022-12-08T06:03:16.240Z,48.05
2022-12-08T06:05:46.351Z,48.33
2022-12-08T06:08:13.932Z,52.58
2022-12-08T06:10:43.480Z,58.83
2022-12-08T06:13:11.384Z,50.13
2022-12-08T06:15:40.021Z,54.83
2022-12-08T06:18:07.928Z,59.45
2022-12-08T06:20:35.520Z,36.28
2022-12-08T06:23:03.645Z,29.20
2022-12-08T06:25:31.176Z,25.52
2022-12-08T06:27:58.633Z,26.77
2022-12-08T06:30:27.372Z,41.95
2022-12-08T06:32:54.650Z,53.13
2022-12-08T06:35:22.211Z,40.22
2022-12-08T06:37:51.801Z,38.33
2022-12-08T06:40:20.165Z,34.58
2022-12-08T06:42:47.511Z,27.58
2022-12-08T06:45:16.809Z,26.88
2022-12-08T06:47:44.754Z,29.10
2022-12-08T06:50:14.814Z,28.50
2022-12-08T06:52:55.770Z,35.72
2022-12-08T06:55:59.411Z,29.25
2022-12-08T06:58:18.377Z,25.58
2022-12-08T07:00:46.499Z,29.50
2022-12-08T07:03:14.568Z,33.95
2022-12-08T07:05:42.142Z,40.40
2022-12-08T07:08:09.731Z,41.92
2022-12-08T07:10:39.140Z,47.45
2022-12-08T07:13:06.451Z,52.28
2022-12-08T07:15:34.461Z,55.88
2022-12-08T07:18:01.804Z,53.65
2022-12-08T07:20:29.524Z,52.05
2022-12-08T07:22:57.866Z,51.00
2022-12-08T07:25:25.368Z,53.85
2022-12-08T07:27:53.469Z,49.33
2022-12-08T07:30:21.087Z,68.68
2022-12-08T07:32:49.309Z,69.93
2022-12-08T07:35:17.026Z,56.75
2022-12-08T07:37:44.184Z,49.28
2022-12-08T07:40:12.331Z,45.45
2022-12-08T07:42:39.559Z,40.28
2022-12-08T07:45:07.828Z,29.77
2022-12-08T07:47:35.209Z,28.35
2022-12-08T07:50:02.862Z,25.05
2022-12-08T07:52:30.249Z,24.02
2022-12-08T07:54:57.771Z,21.48
2022-12-08T07:57:24.986Z,21.48
2022-12-08T07:59:52.489Z,23.48
2022-12-08T08:02:25.405Z,13.73
2022-12-08T08:04:57.257Z,14.55
2022-12-08T08:07:24.528Z,12.48
2022-12-08T08:09:52.208Z,13.63
2022-12-08T08:12:31.289Z,18.40
2022-12-08T08:15:01.268Z,17.17
2022-12-08T08:17:29.826Z,17.08
2022-12-08T08:19:57.717Z,20.25
2022-12-08T08:22:28.440Z,16.83
2022-12-08T08:24:55.991Z,13.77
2022-12-08T08:27:23.267Z,15.32
2022-12-08T08:29:51.639Z,13.60
2022-12-08T08:32:18.896Z,18.15
2022-12-08T08:34:46.501Z,18.42
2022-12-08T08:37:13.792Z,25.95
2022-12-08T08:39:43.280Z,28.90
2022-12-08T08:42:10.716Z,32.65
2022-12-08T08:44:39.193Z,22.17
2022-12-08T08:47:06.852Z,22.90
2022-12-08T08:49:34.572Z,12.73
2022-12-08T08:52:02.017Z,20.30
2022-12-08T08:54:30.120Z,17.33
2022-12-08T08:56:58.471Z,19.02
2022-12-08T08:59:29.915Z,16.08
2022-12-08T09:01:57.507Z,16.95
2022-12-08T09:04:25.937Z,14.88
2022-12-08T09:06:53.406Z,20.30
2022-12-08T09:09:21.030Z,9.63
2022-12-08T09:11:48.398Z,11.80
2022-12-08T09:14:16.133Z,26.00
2022-12-08T09:16:43.633Z,17.38
2022-12-08T09:19:11.208Z,22.20
2022-12-08T09:21:40.159Z,25.30
2022-12-08T09:24:10.752Z,26.98
2022-12-08T09:26:38.077Z,25.67
2022-12-08T09:29:05.701Z,15.20
2022-12-08T09:31:33.245Z,8.63
2022-12-08T09:34:01.189Z,12.82
2022-12-08T09:36:29.344Z,13.77
2022-12-08T09:38:57.278Z,10.38
2022-12-08T09:41:39.197Z,15.57
2022-12-08T09:44:31.165Z,23.60
2022-12-08T09:47:01.156Z,13.25
2022-12-08T09:49:41.948Z,16.75
2022-12-08T09:52:23.412Z,11.13
2022-12-08T09:54:51.054Z,6.40
2022-12-08T09:57:22.820Z,8.80
2022-12-08T09:59:57.966Z,8.77
2022-12-08T10:02:28.715Z,9.48
2022-12-08T10:04:58.652Z,13.90
2022-12-08T10:07:38.138Z,8.98
2022-12-08T10:10:27.361Z,8.88
2022-12-08T10:13:06.406Z,8.00
2022-12-08T10:15:49.924Z,9.23
2022-12-08T10:18:20.511Z,9.43
2022-12-08T10:20:50.774Z,9.40
2022-12-08T10:23:17.913Z,14.18
2022-12-08T10:25:50.607Z,13.73
2022-12-08T10:28:19.812Z,8.80
2022-12-08T10:30:47.394Z,8.30
2022-12-08T10:33:17.246Z,10.02
2022-12-08T10:35:59.600Z,9.32
2022-12-08T10:38:37.764Z,8.50
2022-12-08T10:41:11.278Z,10.63
2022-12-08T10:43:50.746Z,7.80
2022-12-08T10:46:26.081Z,6.97
2022-12-08T10:49:10.646Z,6.85
2022-12-08T10:51:41.303Z,6.20
2022-12-08T10:54:28.500Z,6.53
2022-12-08T10:56:57.886Z,7.65
2022-12-08T10:59:25.946Z,6.00
2022-12-08T11:01:55.916Z,7.55
2022-12-08T11:04:36.506Z,7.00
2022-12-08T11:07:11.381Z,8.15
2022-12-08T11:09:49.040Z,8.57
2022-12-08T11:12:19.710Z,10.07
2022-12-08T11:14:56.064Z,8.00
2022-12-08T11:17:26.816Z,7.88
2022-12-08T11:20:04.036Z,7.15
2022-12-08T11:22:39.879Z,10.15
2022-12-08T11:25:12.898Z,8.30
2022-12-08T11:27:46.231Z,11.35
2022-12-08T11:30:17.391Z,9.95
2022-12-08T11:32:47.548Z,9.85
2022-12-08T11:35:37.950Z,6.22
2022-12-08T11:38:31.023Z,7.13
2022-12-08T11:41:15.581Z,8.75
2022-12-08T11:44:38.017Z,7.40
2022-12-08T11:47:34.315Z,6.30
2022-12-08T11:50:24.881Z,8.45
2022-12-08T11:52:52.384Z,7.90
2022-12-08T11:55:43.922Z,7.47
2022-12-08T11:58:46.331Z,8.75
2022-12-08T12:01:22.978Z,7.72
2022-12-08T12:04:37.870Z,7.85
2022-12-08T12:07:26.483Z,6.97
2022-12-08T12:09:56.659Z,7.07
2022-12-08T12:13:25.090Z,7.82
2022-12-08T12:16:12.892Z,12.98
2022-12-08T12:19:18.081Z,13.02
2022-12-08T12:22:12.907Z,8.93
2022-12-08T12:24:42.558Z,8.07
2022-12-08T12:27:15.738Z,7.03
2022-12-08T12:30:05.930Z,7.03
2022-12-08T12:32:47.110Z,7.68
2022-12-08T12:35:38.149Z,8.00
2022-12-08T12:38:37.687Z,7.55
2022-12-08T12:41:06.958Z,7.78
2022-12-08T12:43:38.331Z,8.35
2022-12-08T12:46:24.156Z,9.18
2022-12-08T12:48:52.348Z,17.08
2022-12-08T12:51:39.070Z,13.50
2022-12-08T12:54:26.743Z,12.60
2022-12-08T12:57:21.121Z,18.40
2022-12-08T12:59:55.243Z,23.60
2022-12-08T13:02:50.238Z,12.93
2022-12-08T13:05:30.660Z,23.58
2022-12-08T13:08:03.057Z,15.45
2022-12-08T13:10:42.196Z,34.45
2022-12-08T13:13:12.884Z,27.42
2022-12-08T13:15:48.470Z,22.45
2022-12-08T13:18:21.070Z,22.85
2022-12-08T13:21:17.516Z,23.00
2022-12-08T13:23:49.392Z,12.60
2022-12-08T13:26:26.960Z,21.95
2022-12-08T13:29:05.968Z,14.57
2022-12-08T13:31:43.746Z,16.80
2022-12-08T13:34:32.893Z,32.05
2022-12-08T13:37:22.575Z,36.53
2022-12-08T13:40:13.286Z,23.15
2022-12-08T13:42:41.248Z,29.05
2022-12-08T13:46:10.835Z,28.13
2022-12-08T13:49:18.510Z,36.85
2022-12-08T13:57:30.478Z,39.95
2022-12-08T14:00:05.860Z,29.75
2022-12-08T14:02:48.088Z,33.80
2022-12-08T14:05:21.744Z,37.85
2022-12-08T14:07:57.131Z,30.70
2022-12-08T14:10:32.378Z,23.65
2022-12-08T14:13:06.519Z,21.35
2022-12-08T14:15:38.099Z,19.25
2022-12-08T14:18:24.260Z,20.85
2022-12-08T14:21:22.825Z,20.08
2022-12-08T14:23:51.580Z,18.98
2022-12-08T14:26:18.991Z,17.60
2022-12-08T14:28:46.930Z,18.00
2022-12-08T14:31:14.953Z,19.00
2022-12-08T14:33:43.267Z,20.67
2022-12-08T14:36:14.829Z,21.88
2022-12-08T14:38:42.621Z,21.25
2022-12-08T14:41:12.105Z,18.48
2022-12-08T14:43:41.162Z,20.00
2022-12-08T14:46:23.257Z,20.67
2022-12-08T14:48:51.232Z,19.50
2022-12-08T14:51:21.653Z,17.63
2022-12-08T14:54:12.428Z,17.55
2022-12-08T14:56:48.927Z,20.83
2022-12-08T14:59:35.748Z,20.85
2022-12-08T15:02:09.323Z,23.55
2022-12-08T15:04:44.188Z,28.77
2022-12-08T15:07:11.433Z,46.00
2022-12-08T15:09:42.142Z,42.28
2022-12-08T15:12:12.543Z,35.50
2022-12-08T15:14:58.389Z,30.02
2022-12-08T15:17:58.110Z,29.65
2022-12-08T15:20:33.188Z,29.10
2022-12-08T15:23:04.209Z,25.10
2022-12-08T15:25:32.112Z,21.23
2022-12-08T15:27:59.526Z,17.15
2022-12-08T15:30:27.218Z,16.40
2022-12-08T15:32:56.478Z,26.33
2022-12-08T15:35:24.119Z,22.05
2022-12-08T15:37:51.673Z,21.33
2022-12-08T15:40:21.572Z,17.90
2022-12-08T15:42:49.720Z,17.23
2022-12-08T15:45:17.951Z,22.67
2022-12-08T15:47:45.890Z,15.63
2022-12-08T15:50:18.905Z,15.50
2022-12-08T15:52:46.764Z,18.83
2022-12-08T15:55:16.551Z,17.38
2022-12-08T16:00:52.267Z,21.90
2022-12-08T16:07:04.805Z,21.23
2022-12-08T16:09:12.531Z,17.52
2022-12-08T16:17:27.526Z,21.15
2022-12-08T16:19:55.629Z,22.02
2022-12-08T16:22:52.879Z,22.92
2022-12-08T16:25:21.482Z,18.85
2022-12-08T16:28:05.298Z,21.23
2022-12-08T16:30:40.132Z,22.15
2022-12-08T16:33:08.039Z,18.77
2022-12-08T16:35:35.736Z,18.83
2022-12-08T16:38:03.488Z,21.15
2022-12-08T16:40:30.948Z,17.63
2022-12-08T16:42:59.038Z,18.85
2022-12-08T16:45:30.859Z,20.70
2022-12-08T16:48:00.913Z,18.50
2022-12-08T16:50:31.153Z,19.88
2022-12-08T16:53:04.557Z,25.08
2022-12-08T16:55:32.381Z,31.33
2022-12-08T16:58:00.241Z,29.30
2022-12-08T17:00:29.780Z,43.47
2022-12-08T17:02:59.099Z,89.22
2022-12-08T17:05:27.401Z,57.72
2022-12-08T17:07:55.402Z,41.03
2022-12-08T17:10:25.408Z,56.15
2022-12-08T17:12:53.535Z,53.28
2022-12-08T17:15:23.439Z,40.38
2022-12-08T17:17:52.087Z,72.65
2022-12-08T17:20:22.281Z,65.97
2022-12-08T17:22:50.073Z,188.13
2022-12-08T17:25:17.529Z,74.43
2022-12-08T17:27:47.762Z,132.77
2022-12-08T17:30:17.735Z,85.68
2022-12-08T17:32:45.881Z,46.33
2022-12-08T17:35:14.542Z,76.28
2022-12-08T17:37:43.800Z,75.05
2022-12-08T17:40:11.908Z,38.53
2022-12-08T17:42:39.773Z,67.40
2022-12-08T17:45:08.231Z,31.17
2022-12-08T17:47:37.461Z,35.75
2022-12-08T17:50:06.846Z,29.95
2022-12-08T17:52:34.941Z,32.72
2022-12-08T17:55:02.282Z,21.23
2022-12-08T17:57:30.897Z,22.63
2022-12-08T17:59:59.271Z,42.88
2022-12-08T18:02:27.138Z,29.00
2022-12-08T18:04:54.775Z,30.95
2022-12-08T18:07:22.667Z,32.28
2022-12-08T18:09:51.816Z,29.77
2022-12-08T18:12:23.553Z,24.55
2022-12-08T18:14:52.517Z,28.77
2022-12-08T18:17:20.894Z,39.65
2022-12-08T18:19:48.399Z,37.28
2022-12-08T18:22:16.256Z,43.40
2022-12-08T18:24:44.543Z,39.75
2022-12-08T18:27:12.298Z,33.97
2022-12-08T18:29:40.196Z,33.00
2022-12-08T18:32:08.676Z,27.05
2022-12-08T18:34:36.408Z,42.30
2022-12-08T18:37:04.248Z,33.92
2022-12-08T18:39:33.250Z,18.60
2022-12-08T18:42:23.096Z,38.70
2022-12-08T18:45:07.010Z,33.50
2022-12-08T18:47:37.839Z,56.67
2022-12-08T18:50:07.811Z,45.90
2022-12-08T18:52:35.557Z,44.25
2022-12-08T18:55:07.040Z,45.10
2022-12-08T18:57:38.504Z,47.97
2022-12-08T19:00:08.103Z,48.53
2022-12-08T19:02:37.720Z,34.15
2022-12-08T19:05:06.257Z,19.58
2022-12-08T19:07:34.241Z,16.75
2022-12-08T19:10:01.830Z,18.20
2022-12-08T19:12:29.590Z,41.38
2022-12-08T19:14:57.400Z,48.58
2022-12-08T19:17:26.104Z,32.42
2022-12-08T19:19:53.475Z,49.17
2022-12-08T19:22:21.204Z,53.25
2022-12-08T19:24:48.538Z,54.72
2022-12-08T19:27:16.433Z,64.28
2022-12-08T19:29:43.780Z,77.18
2022-12-08T19:32:11.819Z,101.53
2022-12-08T19:34:39.066Z,84.45
2022-12-08T19:37:07.103Z,58.97
2022-12-08T19:39:53.012Z,59.35
2022-12-08T19:42:39.705Z,62.33
2022-12-08T19:45:14.490Z,50.13
2022-12-08T19:47:43.062Z,41.57
2022-12-08T19:50:30.793Z,28.00
2022-12-08T19:52:58.894Z,30.65
2022-12-08T19:55:26.850Z,33.92
2022-12-08T19:57:55.142Z,33.17
2022-12-08T20:00:22.757Z,33.70
2022-12-08T20:02:50.776Z,35.88
2022-12-08T20:05:18.217Z,39.72
2022-12-08T20:07:45.916Z,42.95
2022-12-08T20:10:22.228Z,45.60
2022-12-08T20:12:51.173Z,44.17
2022-12-08T20:15:18.619Z,46.80
2022-12-08T20:17:46.291Z,38.42
2022-12-08T20:20:14.276Z,41.63
2022-12-08T20:22:42.830Z,43.20
2022-12-08T20:25:12.984Z,40.42
2022-12-08T20:27:41.641Z,45.53
2022-12-08T20:30:14.979Z,44.47
2022-12-08T20:32:45.654Z,56.75
2022-12-08T20:35:13.358Z,65.03
2022-12-08T20:37:41.188Z,59.30
2022-12-08T20:40:09.033Z,56.28
2022-12-08T20:42:36.736Z,56.00
2022-12-08T20:45:06.678Z,51.50
2022-12-08T20:47:35.488Z,60.08
2022-12-08T20:50:05.753Z,62.92
2022-12-08T20:52:33.792Z,62.08
2022-12-08T20:55:01.438Z,60.67
2022-12-08T20:57:29.299Z,47.30
2022-12-08T20:59:56.954Z,47.30
2022-12-08T21:02:24.810Z,45.78
2022-12-08T21:04:52.760Z,43.60
2022-12-08T21:07:20.816Z,42.42
2022-12-08T21:09:48.406Z,48.17
2022-12-08T21:12:16.474Z,55.92
2022-12-08T21:14:43.905Z,63.50
2022-12-08T21:17:11.658Z,61.92
2022-12-08T21:19:39.375Z,60.47
2022-12-08T21:22:07.065Z,43.53
2022-12-08T21:24:34.845Z,39.25
2022-12-08T21:27:02.902Z,41.90
2022-12-08T21:29:30.259Z,31.95
2022-12-08T21:31:58.922Z,53.85
2022-12-08T21:34:31.896Z,34.25
2022-12-08T21:37:00.689Z,43.00
2022-12-08T21:39:29.252Z,33.85
2022-12-08T21:42:15.925Z,34.08
2022-12-08T21:44:44.171Z,39.60
2022-12-08T21:47:13.069Z,49.17
2022-12-08T21:49:40.793Z,28.23
2022-12-08T21:52:08.627Z,29.55
2022-12-08T21:54:37.268Z,23.50
2022-12-08T21:57:04.974Z,23.55
2022-12-08T21:59:33.134Z,28.38
2022-12-08T22:02:01.410Z,29.40
2022-12-08T22:04:29.067Z,34.00
2022-12-08T22:06:57.116Z,26.42
2022-12-08T22:09:24.688Z,24.35
2022-12-08T22:11:52.477Z,27.90
2022-12-08T22:14:19.838Z,27.15
2022-12-08T22:16:47.930Z,28.77
2022-12-08T22:19:15.658Z,28.40
2022-12-08T22:21:44.055Z,29.42
2022-12-08T22:24:11.520Z,44.47
2022-12-08T22:26:39.319Z,20.98
2022-12-08T22:29:07.267Z,19.17
2022-12-08T22:31:35.396Z,20.58
2022-12-08T22:34:02.853Z,24.48
2022-12-08T22:36:30.743Z,19.30
2022-12-08T22:38:58.935Z,19.95
2022-12-08T22:41:26.557Z,19.75
2022-12-08T22:43:54.111Z,24.05
2022-12-08T22:46:26.877Z,30.88
2022-12-08T22:48:55.173Z,25.17
2022-12-08T22:51:23.099Z,28.02
2022-12-08T22:53:50.931Z,27.52
2022-12-08T22:56:20.083Z,33.67
2022-12-08T22:58:47.497Z,29.52
2022-12-08T23:01:30.066Z,30.90
2022-12-08T23:03:59.441Z,32.65
2022-12-08T23:06:29.271Z,34.92
2022-12-08T23:08:57.268Z,38.80
2022-12-08T23:11:31.374Z,37.08
2022-12-08T23:14:00.561Z,38.42
2022-12-08T23:16:29.144Z,40.45
2022-12-08T23:18:56.572Z,40.42
2022-12-08T23:21:27.105Z,37.78
2022-12-08T23:23:54.461Z,38.13
2022-12-08T23:26:27.373Z,45.22
2022-12-08T23:29:07.742Z,47.45
2022-12-08T23:31:53.754Z,47.55
2022-12-08T23:34:21.357Z,48.45
2022-12-08T23:36:48.983Z,46.45
2022-12-08T23:39:16.409Z,44.70
2022-12-08T23:41:44.432Z,53.42
2022-12-08T23:44:12.433Z,45.85
2022-12-08T23:46:40.024Z,48.90
2022-12-08T23:49:07.733Z,47.30
2022-12-08T23:51:35.428Z,43.85
2022-12-08T23:54:06.309Z,42.83
2022-12-08T23:56:33.913Z,44.40
2022-12-08T23:59:01.311Z,43.40
